Flight Track Log - Related Links

Times and Time Zones

All times are in EDT time to prevent confusion due to time zone crossing. See the EGF4971 flight status page for this flight to view local times or setup timezone preferences in your user account.

Time Position Orientation Groundspeed Altitude Reporting Facility
EDT Latitude Longitude Course Direction KTS MPH feet Rate Location/Type
Mon 09:36:15 AM 25.7917 -80.2761 179° South  Level FlightAware Approximate
Mon 09:37:43 AM 25.7458 -80.2753 171° South 157 181 1,900  Level Miami Center
Mon 09:38:43 AM 25.7003 -80.2669 210° Southwest 169 194 3,400 1,397 Climbing Miami Center
Mon 09:39:39 AM 25.6556 -80.2958 212° Southwest 196 226 4,600 1,293 Climbing Miami Center
Mon 09:40:39 AM 25.6111 -80.3267 214° Southwest 198 228 5,900 1,190 Climbing Miami Center
Mon 09:41:40 AM 25.5642 -80.3622 215° Southwest 199 229 7,000 836 Climbing Miami Center
Mon 09:42:41 AM 25.5153 -80.4000 178° South 225 259 7,600 884 Climbing Miami Center
Mon 09:43:49 AM 25.4506 -80.3981 181° South 217 250 8,900 1,078 Climbing Miami Center
Mon 09:44:49 AM 25.3961 -80.3989 178° South 210 242 9,900 1,000 Climbing Miami Center
Mon 09:45:49 AM 25.3419 -80.3972 178° South 203 234 10,900 750 Climbing Miami Center
Mon 09:46:49 AM 25.2878 -80.3956 158° South 198 228 11,400 50 Climbing Miami Center
Mon 09:47:49 AM 25.2319 -80.3711 92° East 198 228 11,000 -200 Descending Miami Center
Mon 09:48:49 AM 25.2294 -80.2931 96° East 189 217 11,000  Level Miami Center
Mon 09:49:49 AM 25.2228 -80.2192 92° East 207 238 11,000  Level Miami Center
Mon 09:50:49 AM 25.2206 -80.1411 92° East 231 266 11,000  Level Miami Center
Mon 09:51:49 AM 25.2178 -80.0675 96° East 241 277 11,000  Level Miami Center
Mon 09:52:49 AM 25.2111 -79.9917 94° East 246 283 11,000  Level Miami Center
Mon 09:53:49 AM 25.2064 -79.9158 94° East 246 283 11,000  Level Miami Center
Mon 09:54:49 AM 25.2019 -79.8375 92° East 246 283 11,000  Level Miami Center
Mon 09:55:49 AM 25.1992 -79.7617 94° East 251 289 11,000  Level Miami Center
Mon 09:56:49 AM 25.1944 -79.6836 94° East 251 289 11,000  Level Miami Center
Mon 09:57:49 AM 25.1894 -79.6078 94° East 256 295 11,000  Level Miami Center
Mon 09:58:49 AM 25.1847 -79.5294 96° East 256 295 11,000  Level Miami Center
Mon 09:59:49 AM 25.1778 -79.4514 92° East 256 295 11,000  Level Miami Center
Mon 10:00:49 AM 25.1750 -79.3708 93° East 256 295 11,000  Level Miami Center
Mon 10:01:49 AM 25.1719 -79.2997 96° East 256 295 11,000  Level Miami Center
Mon 10:02:49 AM 25.1650 -79.2214 96° East 256 295 11,000  Level Miami Center
Mon 10:03:49 AM 25.1578 -79.1408 94° East 256 295 11,000  Level Miami Center
Mon 10:04:49 AM 25.1528 -79.0581 97° East 256 295 11,000  Level Miami Center
Mon 10:05:49 AM 25.1436 -78.9778 101° East 261 300 11,000  Level Miami Center
Mon 10:06:49 AM 25.1281 -78.8881 108° East 261 300 11,000  Level Miami Center
Mon 10:07:49 AM 25.1061 -78.8142 103° East 256 295 11,000  Level Miami Center
Mon 10:08:49 AM 25.0903 -78.7406 114° Southeast 250 288 11,000  Level Miami Center
Mon 10:09:49 AM 25.0639 -78.6758 117° Southeast 239 275 11,000  Level Miami Center
Mon 10:10:49 AM 25.0314 -78.6064 111° Southeast 239 275 11,000  Level Miami Center
Mon 10:11:49 AM 25.0069 -78.5375 126° Southeast 239 275 11,000  Level Miami Center
Mon 10:12:49 AM 24.9639 -78.4725 125° Southeast 249 287 11,000  Level Miami Center
Mon 10:13:49 AM 24.9289 -78.4172 124° Southeast 254 292 11,000  Level Miami Center
Mon 10:14:49 AM 24.8919 -78.3572 123° Southeast 249 287 11,000  Level Miami Center
Mon 10:15:49 AM 24.8569 -78.2972 125° Southeast 238 274 11,000  Level Miami Center
Mon 10:16:49 AM 24.8219 -78.2417 125° Southeast 238 274 11,000  Level Miami Center
Mon 10:17:49 AM 24.7869 -78.1864 119° Southeast 227 261 11,000  Level Miami Center
Mon 10:18:49 AM 24.7583 -78.1289 64° Northeast 221 254 11,000 -250 Level Miami Center
Mon 10:19:49 AM 24.7858 -78.0675 65° Northeast 195 224 10,500 -850 Descending Miami Center
Mon 10:20:49 AM 24.8136 -78.0014 65° Northeast 202 232 9,300 -1,200 Descending Miami Center

Login

Don't have an account? Register now (free) for customized features, flight alerts, and more!